createdAt,value
2022-08-03T00:01:40.515Z,62.16
2022-08-03T00:06:43.003Z,60.68
2022-08-03T00:11:45.456Z,62.15
2022-08-03T00:16:47.904Z,63.33
2022-08-03T00:21:50.350Z,55.65
2022-08-03T00:26:53.040Z,54.45
2022-08-03T00:32:00.330Z,55.20
2022-08-03T00:37:03.117Z,62.20
2022-08-03T00:42:06.954Z,63.43
2022-08-03T00:47:10.371Z,58.89
2022-08-03T00:52:15.413Z,58.79
2022-08-03T00:57:17.831Z,58.67
2022-08-03T01:02:20.303Z,56.21
2022-08-03T01:07:44.104Z,64.26
2022-08-03T01:14:00.947Z,64.46
2022-08-03T01:19:05.300Z,60.91
2022-08-03T01:24:23.253Z,61.98
2022-08-03T01:29:43.526Z,57.54
2022-08-03T01:35:02.369Z,61.05
2022-08-03T01:40:08.079Z,59.59
2022-08-03T01:45:13.557Z,58.15
2022-08-03T01:50:19.148Z,64.84
2022-08-03T01:55:25.136Z,64.35
2022-08-03T02:00:28.799Z,61.89
2022-08-03T02:05:34.030Z,58.30
2022-08-03T02:10:37.746Z,62.58
2022-08-03T02:15:41.398Z,63.78
2022-08-03T02:20:46.431Z,62.10
2022-08-03T02:25:57.775Z,63.76
2022-08-03T02:31:11.715Z,62.05
2022-08-03T02:36:16.902Z,60.99
2022-08-03T02:41:29.584Z,64.17
2022-08-03T02:46:36.101Z,66.79
2022-08-03T02:51:40.280Z,66.42
2022-08-03T02:56:45.274Z,66.13
2022-08-03T03:01:48.553Z,62.59
2022-08-03T03:06:52.536Z,62.13
2022-08-03T03:11:57.692Z,67.59
2022-08-03T03:17:01.784Z,62.24
2022-08-03T03:22:07.195Z,66.43
2022-08-03T03:27:10.285Z,65.28
2022-08-03T03:32:19.846Z,63.45
2022-08-03T03:37:22.665Z,67.47
2022-08-03T03:42:26.203Z,65.18
2022-08-03T03:47:32.712Z,66.46
2022-08-03T03:52:36.565Z,67.81
2022-08-03T03:57:39.019Z,69.09
2022-08-03T04:02:41.871Z,67.14
2022-08-03T04:08:31.045Z,68.42
2022-08-03T04:13:38.572Z,66.02
2022-08-03T04:18:44.856Z,69.34
2022-08-03T04:23:51.415Z,66.62
2022-08-03T04:28:55.347Z,70.02
2022-08-03T04:33:59.014Z,68.36
2022-08-03T04:39:08.628Z,70.27
2022-08-03T04:44:13.816Z,72.18
2022-08-03T04:49:16.958Z,70.19
2022-08-03T04:54:19.503Z,66.67
2022-08-03T04:59:21.946Z,72.16
2022-08-03T05:04:24.381Z,76.15
2022-08-03T05:09:52.247Z,79.45
2022-08-03T05:14:49.355Z,75.88
2022-08-03T05:19:51.976Z,72.49
2022-08-03T05:24:54.439Z,72.60
2022-08-03T05:29:57.110Z,69.82
2022-08-03T05:36:01.934Z,65.92
2022-08-03T05:40:56.793Z,65.32
2022-08-03T05:46:12.038Z,64.05
2022-08-03T05:51:15.559Z,65.62
2022-08-03T05:56:21.640Z,65.79
2022-08-03T06:01:24.206Z,64.04
2022-08-03T06:06:31.893Z,63.88
2022-08-03T06:11:34.687Z,63.33
2022-08-03T06:16:37.199Z,62.58
2022-08-03T06:21:39.877Z,62.02
2022-08-03T06:26:42.436Z,62.54
2022-08-03T06:31:44.834Z,60.46
2022-08-03T06:36:48.648Z,60.99
2022-08-03T06:41:51.538Z,59.53
2022-08-03T06:46:54.045Z,58.81
2022-08-03T06:52:05.293Z,58.52
2022-08-03T06:57:11.605Z,58.42
2022-08-03T07:02:18.296Z,57.86
2022-08-03T07:07:22.082Z,56.97
2022-08-03T07:12:24.834Z,56.85
2022-08-03T07:17:27.553Z,54.56
2022-08-03T07:22:30.059Z,53.40
2022-08-03T07:27:33.790Z,52.59
2022-08-03T07:32:36.384Z,51.09
2022-08-03T07:37:54.736Z,50.42
2022-08-03T07:42:58.411Z,49.28
2022-08-03T07:48:01.263Z,48.43
2022-08-03T07:53:03.666Z,48.14
2022-08-03T07:58:09.827Z,46.09
2022-08-03T08:03:13.314Z,46.13
2022-08-03T08:08:15.874Z,44.97
2022-08-03T08:13:18.370Z,44.00
2022-08-03T08:18:20.939Z,42.80
2022-08-03T08:23:42.700Z,41.76
2022-08-03T08:28:46.559Z,42.43
2022-08-03T08:34:03.565Z,41.54
2022-08-03T08:39:06.951Z,40.23
2022-08-03T08:44:10.306Z,39.57
2022-08-03T08:49:17.300Z,38.25
2022-08-03T08:54:22.705Z,40.14
2022-08-03T08:59:26.326Z,39.80
2022-08-03T09:04:31.488Z,40.02
2022-08-03T09:10:11.058Z,38.27
2022-08-03T09:15:15.120Z,36.89
2022-08-03T09:20:20.716Z,37.90
2022-08-03T09:25:37.707Z,38.48
2022-08-03T09:30:42.343Z,35.45
2022-08-03T09:35:55.285Z,34.07
2022-08-03T09:41:00.944Z,35.13
2022-08-03T09:46:05.295Z,35.46
2022-08-03T09:51:13.152Z,31.78
2022-08-03T09:56:47.613Z,33.99
2022-08-03T10:01:50.077Z,31.47
2022-08-03T10:07:06.221Z,31.62
2022-08-03T10:12:13.558Z,30.65
2022-08-03T10:17:16.734Z,29.57
2022-08-03T10:22:32.505Z,29.88
2022-08-03T10:27:40.740Z,28.38
2022-08-03T10:32:57.660Z,28.58
2022-08-03T10:38:03.289Z,29.36
2022-08-03T10:43:18.823Z,28.76
2022-08-03T10:48:22.193Z,28.16
2022-08-03T10:53:54.818Z,28.87
2022-08-03T10:58:58.251Z,26.83
2022-08-03T11:04:16.963Z,29.76
2022-08-03T11:09:19.805Z,26.93
2022-08-03T11:14:22.741Z,25.93
2022-08-03T11:19:57.520Z,26.11
2022-08-03T11:25:01.795Z,26.80
2022-08-03T11:30:29.208Z,25.12
2022-08-03T11:35:36.105Z,26.95
2022-08-03T11:40:47.422Z,25.83
2022-08-03T11:46:04.706Z,26.74
2022-08-03T11:51:18.753Z,25.99
2022-08-03T11:56:21.415Z,28.03
2022-08-03T12:01:24.877Z,26.15
2022-08-03T12:06:27.596Z,24.98
2022-08-03T12:11:30.737Z,24.88
2022-08-03T12:16:33.253Z,26.60
2022-08-03T12:21:45.556Z,26.36
2022-08-03T12:27:03.193Z,25.35
2022-08-03T12:32:05.852Z,24.89
2022-08-03T12:37:22.301Z,27.52
2022-08-03T12:42:36.986Z,25.09
2022-08-03T12:48:02.195Z,27.68
2022-08-03T12:53:08.016Z,26.08
2022-08-03T12:58:33.818Z,27.53
2022-08-03T13:03:50.394Z,26.82
2022-08-03T13:09:08.459Z,25.76
2022-08-03T13:14:16.723Z,28.01
2022-08-03T13:19:22.746Z,25.79
2022-08-03T13:24:25.329Z,26.40
2022-08-03T13:29:27.850Z,27.94
2022-08-03T13:34:30.395Z,27.08
2022-08-03T13:39:32.933Z,25.51
2022-08-03T13:44:38.724Z,26.57
2022-08-03T13:49:41.159Z,28.49
2022-08-03T13:54:46.185Z,26.70
2022-08-03T13:59:50.842Z,27.37
2022-08-03T14:04:54.733Z,30.10
2022-08-03T14:09:57.223Z,30.85
2022-08-03T14:15:01.519Z,28.57
2022-08-03T14:20:36.669Z,30.60
2022-08-03T14:25:31.006Z,30.32
2022-08-03T14:30:46.191Z,28.24
2022-08-03T14:35:49.352Z,28.34
2022-08-03T14:40:53.180Z,28.53
2022-08-03T14:45:55.628Z,29.52
2022-08-03T14:50:58.295Z,31.19
2022-08-03T14:56:00.923Z,31.57
2022-08-03T15:01:03.651Z,30.65
2022-08-03T15:06:26.113Z,30.93
2022-08-03T15:11:28.652Z,33.00
2022-08-03T15:16:32.089Z,31.32
2022-08-03T15:21:47.351Z,32.52
2022-08-03T15:26:52.351Z,34.90
2022-08-03T15:31:54.862Z,32.50
2022-08-03T15:36:57.295Z,31.52
2022-08-03T15:41:59.837Z,32.68
2022-08-03T15:47:02.330Z,33.92
2022-08-03T15:52:05.847Z,32.02
2022-08-03T15:57:08.351Z,35.14
2022-08-03T16:02:10.840Z,34.46
2022-08-03T16:07:15.854Z,32.69
2022-08-03T16:12:18.478Z,32.92
2022-08-03T16:17:22.444Z,33.30
2022-08-03T16:22:26.153Z,33.62
2022-08-03T16:27:56.822Z,33.46
2022-08-03T16:32:51.315Z,32.86
2022-08-03T16:37:56.234Z,33.75
2022-08-03T16:42:59.390Z,34.21
2022-08-03T16:48:05.901Z,38.02
2022-08-03T16:53:12.798Z,35.60
2022-08-03T16:58:34.223Z,36.97
2022-08-03T17:03:57.070Z,39.47
2022-08-03T17:09:03.640Z,36.94
2022-08-03T17:14:11.841Z,38.91
2022-08-03T17:19:16.061Z,38.01
2022-08-03T17:24:41.069Z,35.76
2022-08-03T17:29:48.574Z,34.90
2022-08-03T17:34:51.178Z,35.91
2022-08-03T17:39:59.472Z,35.60
2022-08-03T17:45:03.795Z,35.48
2022-08-03T17:50:23.993Z,35.18
2022-08-03T17:55:56.942Z,40.00
2022-08-03T18:01:57.446Z,40.71
2022-08-03T18:06:56.220Z,38.73
2022-08-03T18:12:05.035Z,37.54
2022-08-03T18:17:15.633Z,38.42
2022-08-03T18:22:21.883Z,39.00
2022-08-03T18:27:45.458Z,40.41
2022-08-03T18:33:00.623Z,39.59
2022-08-03T18:38:03.992Z,40.18
2022-08-03T18:43:12.848Z,40.31
2022-08-03T18:48:27.395Z,40.19
2022-08-03T18:54:02.471Z,43.43
2022-08-03T18:59:11.608Z,46.93
2022-08-03T19:04:24.303Z,45.74
2022-08-03T19:09:54.622Z,47.33
2022-08-03T19:15:03.697Z,46.27
2022-08-03T19:20:09.161Z,45.36
2022-08-03T19:25:12.240Z,44.76
2022-08-03T19:30:35.838Z,45.86
2022-08-03T19:35:55.384Z,46.03
2022-08-03T19:41:03.768Z,44.77
2022-08-03T19:46:12.533Z,48.00
2022-08-03T19:51:16.810Z,49.50
2022-08-03T19:56:24.197Z,50.71
2022-08-03T20:01:28.214Z,51.02
2022-08-03T20:06:31.555Z,46.82
2022-08-03T20:11:45.039Z,50.74
2022-08-03T20:16:48.164Z,49.89
2022-08-03T20:21:54.711Z,51.48
2022-08-03T20:27:01.410Z,51.04
2022-08-03T20:32:04.623Z,50.19
2022-08-03T20:37:09.529Z,51.04
2022-08-03T20:42:14.852Z,43.90
2022-08-03T20:47:24.390Z,45.87
2022-08-03T20:52:27.729Z,48.92
2022-08-03T20:57:33.057Z,50.54
2022-08-03T21:02:36.097Z,44.09
2022-08-03T21:08:05.088Z,42.32
2022-08-03T21:13:31.713Z,42.36
2022-08-03T21:18:42.262Z,43.23
2022-08-03T21:23:49.639Z,42.28
2022-08-03T21:28:54.534Z,42.78
2022-08-03T21:34:00.151Z,42.80
2022-08-03T21:39:04.973Z,41.84
2022-08-03T21:44:08.479Z,41.92
2022-08-03T21:49:51.855Z,41.32
2022-08-03T21:54:41.227Z,41.85
2022-08-03T21:59:52.032Z,41.40
2022-08-03T22:04:55.256Z,46.27
2022-08-03T22:09:59.876Z,45.73
2022-08-03T22:15:05.194Z,48.14
2022-08-03T22:20:10.323Z,49.96
2022-08-03T22:25:15.404Z,45.60
2022-08-03T22:30:19.364Z,46.32
2022-08-03T22:35:23.984Z,49.10
2022-08-03T22:40:27.873Z,47.96
2022-08-03T22:45:45.801Z,49.50
2022-08-03T22:50:54.246Z,47.59
2022-08-03T22:55:57.344Z,47.22
2022-08-03T23:01:06.693Z,47.80
2022-08-03T23:06:09.634Z,53.06
2022-08-03T23:11:13.126Z,53.32
2022-08-03T23:16:28.897Z,48.34
2022-08-03T23:21:53.327Z,48.41
2022-08-03T23:26:57.238Z,54.23
2022-08-03T23:32:02.231Z,48.22
2022-08-03T23:37:06.579Z,49.48
2022-08-03T23:42:10.996Z,49.89
2022-08-03T23:47:14.199Z,50.72
2022-08-03T23:52:30.190Z,51.17
2022-08-03T23:57:43.260Z,52.10
